»·PEaware :: AAL427 KPDX-KBOI

AAL427 :: KPDX-KBOI

FLIGHT INFORMATION

Flight Status: Arrived
Operator:
American Airlines
More flights by this operator :: More flights under this callsign
Pilot: Chris S. (2433)
Aircraft: AIRBUS A320
(A320)
More flights by this aircraft type
Origin: KPDX Portland Intl
United States
Destination: KBOI Boise Air Terminal/Gowen
United States
More flights between these airports :: More routes between these airports
Route: WHAMY4 IMB HOSTS PARMO3
File this flight plan on PilotEdge
Remarks:
Altitude:
(Current/Filed)
31,000ft
Speed:
(Current/Filed)
450kts
Departed: 24-Feb-18 10:13 AM
Arrived: 24-Feb-18 11:03 AM
Distance/Time
Traveled:
298nm/0:49
Distance/Time
To Go:
Arrived

Flight Plot

Page will automatically refresh every two minutes.

Flight plan parsing failed; only flown route is shown


Map Options




Map Legend


Flown Route
Filed Route
Departure Airport
Arrival Airport
Navaid (VOR, NDB)
Fix

Horizontal Profiles

Position Reports

Time Latitude Longitude Heading Altitude Ground
Speed
24-Feb-18 09:41 45.588235 -122.595764 29 26ft 0kts
24-Feb-18 09:42 45.588235 -122.595764 29 26ft 0kts
24-Feb-18 09:43 45.588235 -122.595764 29 26ft 0kts
24-Feb-18 09:44 45.588235 -122.595764 29 26ft 0kts
24-Feb-18 09:45 45.588235 -122.595764 29 26ft 0kts
24-Feb-18 09:46 45.588235 -122.595764 29 26ft 0kts
24-Feb-18 09:47 45.588235 -122.595764 29 26ft 0kts
24-Feb-18 09:48 45.588235 -122.595764 29 26ft 0kts
24-Feb-18 09:49 45.588235 -122.595764 29 26ft 0kts
24-Feb-18 09:50 45.588235 -122.595764 29 26ft 0kts
24-Feb-18 09:51 45.588235 -122.595764 29 26ft 0kts
24-Feb-18 09:52 45.588235 -122.595764 29 26ft 0kts
24-Feb-18 09:53 45.588235 -122.595764 29 26ft 0kts
24-Feb-18 09:54 45.588235 -122.595764 29 26ft 0kts
24-Feb-18 09:55 45.588235 -122.595764 29 26ft 0kts
24-Feb-18 09:56 45.588235 -122.595764 29 26ft 0kts
24-Feb-18 09:57 45.588235 -122.595764 29 26ft 0kts
24-Feb-18 09:58 45.588235 -122.595764 29 26ft 0kts
24-Feb-18 09:59 45.588235 -122.595764 29 26ft 0kts
24-Feb-18 10:00 45.588235 -122.595764 29 26ft 0kts
24-Feb-18 10:01 45.588235 -122.595764 29 26ft 0kts
24-Feb-18 10:02 45.588235 -122.595764 29 26ft 0kts
24-Feb-18 10:03 45.588235 -122.595764 29 26ft 0kts
24-Feb-18 10:04 45.588235 -122.595764 29 26ft 0kts
24-Feb-18 10:05 45.588235 -122.595764 29 26ft 0kts
24-Feb-18 10:06 45.588235 -122.595764 29 26ft 0kts
24-Feb-18 10:07 45.588235 -122.595764 29 26ft 0kts
24-Feb-18 10:08 45.588235 -122.595764 29 26ft 0kts
24-Feb-18 10:09 45.588235 -122.595764 29 26ft 0kts
24-Feb-18 10:10 45.588235 -122.595764 29 26ft 0kts
24-Feb-18 10:11 45.588235 -122.595764 29 26ft 0kts
24-Feb-18 10:12 45.588086 -122.595917 53 26ft 2kts
24-Feb-18 10:13 45.588061 -122.596583 119 25ft 1kts
24-Feb-18 10:14 45.588068 -122.596600 118 25ft 0kts
24-Feb-18 10:15 45.587955 -122.596382 151 25ft 2kts
24-Feb-18 10:16 45.586199 -122.595302 118 24ft 11kts
24-Feb-18 10:17 45.584535 -122.591049 118 26ft 14kts
24-Feb-18 10:18 45.582270 -122.585168 118 23ft 18kts
24-Feb-18 10:19 45.581243 -122.583588 195 22ft 6kts
24-Feb-18 10:20 45.582256 -122.588394 298 24ft 79kts
24-Feb-18 10:21 45.603716 -122.641082 300 2022ft 179kts
24-Feb-18 10:22 45.635420 -122.714952 300 4487ft 247kts
24-Feb-18 10:23 45.648658 -122.805667 240 7966ft 263kts
24-Feb-18 10:24 45.577160 -122.812358 139 10729ft 333kts
24-Feb-18 10:25 45.525354 -122.686882 117 12144ft 396kts
24-Feb-18 10:26 45.472528 -122.545975 117 14434ft 412kts
24-Feb-18 10:27 45.417150 -122.400700 117 16513ft 426kts
24-Feb-18 10:28 45.359948 -122.251674 118 18368ft 439kts
24-Feb-18 10:29 45.300403 -122.097419 117 20068ft 451kts
24-Feb-18 10:30 45.243523 -121.936997 107 21620ft 460kts
24-Feb-18 10:31 45.199612 -121.765195 105 23006ft 472kts
24-Feb-18 10:32 45.154149 -121.588970 104 24325ft 482kts
24-Feb-18 10:33 45.107469 -121.409355 104 25562ft 491kts
24-Feb-18 10:34 45.059649 -121.226794 105 26514ft 505kts
24-Feb-18 10:35 45.010244 -121.039647 106 27629ft 511kts
24-Feb-18 10:36 44.960048 -120.850965 107 28608ft 518kts
24-Feb-18 10:37 44.909110 -120.661099 107 29813ft 517kts
24-Feb-18 10:38 44.858387 -120.473432 106 30983ft 515kts
24-Feb-18 10:39 44.807420 -120.286342 107 31111ft 515kts
24-Feb-18 10:40 44.755850 -120.098531 107 31061ft 516kts
24-Feb-18 10:41 44.703856 -119.910612 107 31021ft 515kts
24-Feb-18 10:42 44.653534 -119.730110 107 31022ft 516kts
24-Feb-18 10:43 44.599476 -119.543739 108 31027ft 517kts
24-Feb-18 10:44 44.544868 -119.357721 108 31031ft 517kts
24-Feb-18 10:45 44.490257 -119.172971 109 31024ft 517kts
24-Feb-18 10:46 44.435006 -118.987955 109 31029ft 516kts
24-Feb-18 10:47 44.382171 -118.801410 109 29230ft 515kts
24-Feb-18 10:48 44.329979 -118.620424 112 27747ft 485kts
24-Feb-18 10:49 44.278547 -118.455071 112 25762ft 454kts
24-Feb-18 10:50 44.230357 -118.300076 113 24095ft 445kts
24-Feb-18 10:51 44.181372 -118.143305 113 23158ft 438kts
24-Feb-18 10:52 44.132975 -117.989278 113 22169ft 431kts
24-Feb-18 10:53 44.085148 -117.838013 113 21212ft 424kts
24-Feb-18 10:54 44.037839 -117.689180 113 20282ft 418kts
24-Feb-18 10:55 43.991378 -117.543797 113 18702ft 404kts
24-Feb-18 10:56 43.947146 -117.404523 113 15677ft 387kts
24-Feb-18 10:57 43.904893 -117.271690 114 13933ft 375kts
24-Feb-18 10:58 43.863414 -117.141953 114 12145ft 366kts
24-Feb-18 10:59 43.822566 -117.014833 117 10505ft 351kts
24-Feb-18 11:00 43.785368 -116.899909 119 9953ft 305kts
24-Feb-18 11:01 43.751708 -116.796452 119 8848ft 287kts
24-Feb-18 11:02 43.720536 -116.698979 118 7255ft 265kts
24-Feb-18 11:03 43.691760 -116.609479 117 6127ft 249kts
24-Feb-18 11:04 43.664422 -116.524725 117 5341ft 227kts
24-Feb-18 11:05 43.640613 -116.449074 118 5071ft 211kts
24-Feb-18 11:06 43.615473 -116.375332 119 4550ft 207kts
24-Feb-18 11:07 43.593761 -116.311912 120 3952ft 159kts
24-Feb-18 11:08 43.577368 -116.264108 119 3196ft 129kts
24-Feb-18 11:09 43.564375 -116.225970 117 2849ft 62kts
24-Feb-18 11:10 43.562495 -116.216574 356 2857ft 12kts
24-Feb-18 11:11 43.565192 -116.218481 294 2857ft 10kts
24-Feb-18 11:12 43.566966 -116.219790 33 2853ft 0kts
24-Feb-18 11:13 43.566966 -116.219790 33 2853ft 0kts
24-Feb-18 11:14 43.566966 -116.219790 33 2853ft 0kts
24-Feb-18 11:15 43.566966 -116.219790 33 2853ft 0kts
24-Feb-18 11:16 43.566966 -116.219790 33 2853ft 0kts
24-Feb-18 11:17 43.566966 -116.219790 33 2853ft 0kts
24-Feb-18 11:18 43.566966 -116.219790 33 2853ft 0kts
24-Feb-18 11:19 43.566966 -116.219790 33 2853ft 0kts
24-Feb-18 11:20 43.566966 -116.219790 33 2853ft 0kts
24-Feb-18 11:21 43.566966 -116.219790 33 2853ft 0kts
24-Feb-18 11:22 43.566966 -116.219790 33 2853ft 0kts
24-Feb-18 11:23 43.566966 -116.219790 33 2853ft 0kts
24-Feb-18 11:24 43.566966 -116.219790 33 2853ft 0kts

Navigation Log

Ident Type
Flight plan parsing failed, navigation log unavailable